Station Historical Data
Daily Summary for May 19, 2011 Units:  English    Metric   Both
« Previous Day
Next Day »
Daily Weekly Monthly Yearly Custom
  High: Low: Average:
Temperature: 75.1 °F 53.5 °F 69.6 °F
Dew Point: 58.4 °F 50.3 °F 56 °F
Humidity: 90% 49% 63%
Wind Speed: 9.0mph 0.0mph 3mph
Wind Gust: 13.0mph - -
Wind- - ESE
Pressure: 30.05 in 29.92 in -
Precipitation: 0.00 in    
Historical Graphs
 
 
Tabular Data for May 19, 2011
Time Temperature Dew Point Pressure Wind Wind Speed Wind Gust Humidity Rainfall Rate (Hourly) Conditions
00:00 57.1 °F 52.6 °F 29.92 in ESE 2.0 mph 4.0 mph 85% 0.00 in
00:30 56.7 °F 51.9 °F 29.92 in SE 2.0 mph 5.0 mph 84% 0.00 in
01:00 56.6 °F 51.5 °F 29.92 in SE 3.0 mph 5.0 mph 83% 0.00 in
01:30 56.4 °F 51.3 °F 29.93 in SE 2.0 mph 4.0 mph 83% 0.00 in
02:00 55.8 °F 51.0 °F 29.94 in ESE 1.0 mph 3.0 mph 84% 0.00 in
02:30 55.2 °F 50.5 °F 29.92 in ESE 3.0 mph 6.0 mph 84% 0.00 in
03:00 55.2 °F 50.5 °F 29.93 in SE 3.0 mph 6.0 mph 84% 0.00 in
03:30 55.1 °F 50.4 °F 29.93 in SE 2.0 mph 5.0 mph 84% 0.00 in
04:00 54.6 °F 50.8 °F 29.95 in ESE 1.0 mph 3.0 mph 87% 0.00 in
04:30 54.1 °F 50.3 °F 29.95 in East 2.0 mph 3.0 mph 87% 0.00 in
05:00 54.4 °F 50.9 °F 29.95 in SE 3.0 mph 5.0 mph 88% 0.00 in
05:30 54.8 °F 51.6 °F 29.96 in ESE 2.0 mph 4.0 mph 89% 0.00 in
06:00 54.1 °F 51.2 °F 29.96 in ESE 3.0 mph 6.0 mph 90% 0.00 in
06:30 53.7 °F 50.8 °F 29.96 in ESE 2.0 mph 6.0 mph 90% 0.00 in
07:00 53.5 °F 50.6 °F 29.97 in SE 3.0 mph 6.0 mph 90% 0.00 in
07:30 53.9 °F 51.0 °F 29.99 in SE 2.0 mph 6.0 mph 90% 0.00 in
08:00 54.2 °F 51.0 °F 30.01 in East 1.0 mph 2.0 mph 89% 0.00 in
08:30 55.5 °F 51.7 °F 30.01 in East 2.0 mph 5.0 mph 87% 0.00 in
09:00 56.2 °F 52.1 °F 30.02 in ESE 4.0 mph 8.0 mph 86% 0.00 in
09:30 59.3 °F 53.1 °F 30.03 in SE 4.0 mph 8.0 mph 80% 0.00 in
10:00 60.5 °F 53.6 °F 30.05 in SE 4.0 mph 8.0 mph 78% 0.00 in
10:30 61.1 °F 54.9 °F 30.04 in SSE 3.0 mph 7.0 mph 80% 0.00 in
11:00 63.1 °F 54.3 °F 30.04 in SE 4.0 mph 8.0 mph 73% 0.00 in
11:24 66.5 °F 56.0 °F 30.05 in SE 6.0 mph 7.0 mph 69% 0.00 in
11:33 65.8 °F 55.8 °F 30.05 in SSE 5.0 mph 10.0 mph 70% 0.00 in
11:34 67.3 °F 56.4 °F 30.05 in SSW 6.0 mph 6.0 mph 68% 0.00 in
11:35 67.5 °F 56.6 °F 30.05 in SSE 5.0 mph 6.0 mph 68% 0.00 in
11:39 68.1 °F 56.7 °F 30.05 in SSW 4.0 mph 8.0 mph 67% 0.00 in
11:44 68.3 °F 55.2 °F 30.05 in South 6.0 mph 9.0 mph 63% 0.00 in
11:49 68.5 °F 57.5 °F 30.05 in SSW 4.0 mph 7.0 mph 68% 0.00 in
11:54 68.6 °F 56.4 °F 30.05 in SSW 5.0 mph 8.0 mph 65% 0.00 in
11:55 68.6 °F 56.0 °F 30.05 in SSW 9.0 mph 9.0 mph 64% 0.00 in
11:56 68.6 °F 54.2 °F 30.05 in SSW 5.0 mph 9.0 mph 60% 0.00 in
12:00 68.7 °F 55.6 °F 30.05 in SSW 3.0 mph 7.0 mph 63% 0.00 in
12:01 68.9 °F 57.1 °F 30.05 in SSE 7.0 mph 7.0 mph 66% 0.00 in
12:05 69.2 °F 55.6 °F 30.05 in SSE 6.0 mph 8.0 mph 62% 0.00 in
12:07 69.3 °F 56.2 °F 30.05 in South 4.0 mph 8.0 mph 63% 0.00 in
12:12 70.0 °F 55.5 °F 30.05 in SSE 7.0 mph 9.0 mph 60% 0.00 in
12:17 69.8 °F 54.8 °F 30.05 in SSW 5.0 mph 6.0 mph 59% 0.00 in
12:22 69.3 °F 55.3 °F 30.05 in SW 4.0 mph 9.0 mph 61% 0.00 in
12:23 69.3 °F 55.3 °F 30.05 in SSE 7.0 mph 9.0 mph 61% 0.00 in
12:28 69.5 °F 55.9 °F 30.05 in South 5.0 mph 10.0 mph 62% 0.00 in
12:33 69.4 °F 57.1 °F 30.05 in SSW 5.0 mph 7.0 mph 65% 0.00 in
12:34 69.5 °F 57.2 °F 30.05 in SSW 5.0 mph 7.0 mph 65% 0.00 in
12:37 69.9 °F 56.3 °F 30.05 in SSW 5.0 mph 8.0 mph 62% 0.00 in
12:39 70.0 °F 56.0 °F 30.05 in SSE 3.0 mph 9.0 mph 61% 0.00 in
12:44 70.0 °F 55.5 °F 30.05 in SSW 6.0 mph 10.0 mph 60% 0.00 in
12:49 69.8 °F 54.8 °F 30.05 in SSE 5.0 mph 7.0 mph 59% 0.00 in
12:54 69.6 °F 56.0 °F 30.04 in SW 3.0 mph 5.0 mph 62% 0.00 in
12:55 69.7 °F 57.0 °F 30.04 in SSE 3.0 mph 4.0 mph 64% 0.00 in
12:57 70.0 °F 56.0 °F 30.05 in SE 5.0 mph 7.0 mph 61% 0.00 in
12:59 70.1 °F 55.1 °F 30.05 in SSE 8.0 mph 8.0 mph 59% 0.00 in
13:04 69.9 °F 54.5 °F 30.05 in South 6.0 mph 6.0 mph 58% 0.00 in
13:05 69.9 °F 54.5 °F 30.05 in South 6.0 mph 6.0 mph 58% 0.00 in
13:10 70.4 °F 56.8 °F 30.05 in WSW 3.0 mph 7.0 mph 62% 0.00 in
13:15 70.4 °F 54.9 °F 30.05 in SW 6.0 mph 9.0 mph 58% 0.00 in
13:20 70.4 °F 54.5 °F 30.05 in SW 5.0 mph 8.0 mph 57% 0.00 in
13:25 70.8 °F 55.3 °F 30.04 in SSE 4.0 mph 8.0 mph 58% 0.00 in
13:26 70.9 °F 55.9 °F 30.04 in SW 4.0 mph 8.0 mph 59% 0.00 in
13:30 70.9 °F 55.9 °F 30.04 in SSE 4.0 mph 6.0 mph 59% 0.00 in
13:31 71.0 °F 56.9 °F 30.04 in SE 7.0 mph 7.0 mph 61% 0.00 in
13:36 71.3 °F 54.3 °F 30.04 in SSE 6.0 mph 8.0 mph 55% 0.00 in
13:41 71.8 °F 54.8 °F 30.04 in Calm   5.0 mph 55% 0.00 in
13:46 72.0 °F 55.5 °F 30.04 in SE 6.0 mph 8.0 mph 56% 0.00 in
13:47 71.5 °F 55.5 °F 30.04 in East 6.0 mph 8.0 mph 57% 0.00 in
13:53 71.3 °F 54.3 °F 30.04 in SE 4.0 mph 7.0 mph 55% 0.00 in
13:57 71.4 °F 55.9 °F 30.04 in SSW 2.0 mph 7.0 mph 58% 0.00 in
13:58 71.5 °F 57.8 °F 30.04 in SE 2.0 mph 5.0 mph 62% 0.00 in
13:59 71.8 °F 56.7 °F 30.03 in SSE 3.0 mph 4.0 mph 59% 0.00 in
14:04 72.5 °F 55.4 °F 30.03 in SSW 3.0 mph 6.0 mph 55% 0.00 in
14:09 72.9 °F 56.8 °F 30.03 in South 8.0 mph 8.0 mph 57% 0.00 in
14:10 72.9 °F 56.8 °F 30.03 in SSE 7.0 mph 8.0 mph 57% 0.00 in
14:15 72.6 °F 54.5 °F 30.03 in SSE 3.0 mph 8.0 mph 53% 0.00 in
14:20 72.4 °F 54.8 °F 30.03 in SSE 6.0 mph 10.0 mph 54% 0.00 in
14:25 72.4 °F 54.3 °F 30.02 in SE 1.0 mph 8.0 mph 53% 0.00 in
14:26 72.4 °F 54.3 °F 30.02 in ESE 4.0 mph 6.0 mph 53% 0.00 in
14:31 72.9 °F 55.8 °F 30.02 in SSE 3.0 mph 4.0 mph 55% 0.00 in
14:32 73.0 °F 55.9 °F 30.03 in SE 7.0 mph 7.0 mph 55% 0.00 in
14:36 73.2 °F 55.1 °F 30.02 in SSW 1.0 mph 4.0 mph 53% 0.00 in
14:38 73.7 °F 56.5 °F 30.02 in South 7.0 mph 7.0 mph 55% 0.00 in
14:43 73.5 °F 54.8 °F 30.02 in SSE 3.0 mph 6.0 mph 52% 0.00 in
14:48 73.7 °F 55.0 °F 30.02 in ESE 4.0 mph 8.0 mph 52% 0.00 in
14:53 73.3 °F 53.6 °F 30.02 in ESE 5.0 mph 8.0 mph 50% 0.00 in
14:54 73.3 °F 53.6 °F 30.02 in ESE 4.0 mph 8.0 mph 50% 0.00 in
14:58 73.2 °F 53.5 °F 30.01 in ESE 2.0 mph 2.0 mph 50% 0.00 in
15:00 73.3 °F 54.6 °F 30.01 in SW 3.0 mph 4.0 mph 52% 0.00 in
15:04 73.5 °F 55.3 °F 30.01 in South 9.0 mph 9.0 mph 53% 0.00 in
15:09 73.5 °F 54.8 °F 30.01 in SSW 4.0 mph 7.0 mph 52% 0.00 in
15:11 73.6 °F 55.4 °F 30.01 in SSW 2.0 mph 5.0 mph 53% 0.00 in
15:14 73.6 °F 55.4 °F 30.01 in ENE 6.0 mph 13.0 mph 53% 0.00 in
15:19 73.5 °F 54.3 °F 30.01 in ESE 7.0 mph 8.0 mph 51% 0.00 in
15:24 73.6 °F 54.4 °F 30.01 in ESE 3.0 mph 6.0 mph 51% 0.00 in
15:29 74.0 °F 54.7 °F 30.01 in SSE 2.0 mph 4.0 mph 51% 0.00 in
15:34 74.5 °F 57.8 °F 30.01 in SSW 2.0 mph 6.0 mph 56% 0.00 in
15:35 74.5 °F 57.8 °F 30.01 in SW 2.0 mph 5.0 mph 56% 0.00 in
15:36 74.5 °F 54.1 °F 30.01 in SSE 2.0 mph 5.0 mph 49% 0.00 in
15:40 74.5 °F 56.3 °F 30.01 in SE 3.0 mph 5.0 mph 53% 0.00 in
15:45 74.3 °F 55.0 °F 30.01 in SE 1.0 mph 7.0 mph 51% 0.00 in
15:50 74.3 °F 56.1 °F 30.01 in SE 1.0 mph 6.0 mph 53% 0.00 in
15:51 74.3 °F 54.5 °F 30.00 in ESE 1.0 mph 6.0 mph 50% 0.00 in
15:55 74.0 °F 54.2 °F 30.01 in ENE 3.0 mph 10.0 mph 50% 0.00 in
15:56 74.0 °F 54.2 °F 30.01 in ENE 3.0 mph 8.0 mph 50% 0.00 in
15:57 74.0 °F 55.8 °F 30.00 in ESE 5.0 mph 6.0 mph 53% 0.00 in
16:00 74.0 °F 54.7 °F 30.01 in SSE 2.0 mph 4.0 mph 51% 0.00 in
16:01 74.1 °F 54.8 °F 30.01 in East 6.0 mph 7.0 mph 51% 0.00 in
16:06 74.2 °F 55.5 °F 30.00 in ESE 3.0 mph 7.0 mph 52% 0.00 in
16:11 74.4 °F 57.2 °F 30.00 in ESE 6.0 mph 9.0 mph 55% 0.00 in
16:16 74.1 °F 54.8 °F 30.00 in NE 4.0 mph 6.0 mph 51% 0.00 in
16:21 74.0 °F 57.3 °F 30.00 in South 4.0 mph 6.0 mph 56% 0.00 in
16:26 74.3 °F 56.6 °F 30.00 in ESE 3.0 mph 7.0 mph 54% 0.00 in
16:27 74.3 °F 57.1 °F 30.00 in ENE 4.0 mph 7.0 mph 55% 0.00 in
16:31 74.2 °F 55.5 °F 30.00 in ENE 4.0 mph 8.0 mph 52% 0.00 in
16:32 74.1 °F 55.4 °F 30.00 in East 3.0 mph 8.0 mph 52% 0.00 in
16:36 74.1 °F 56.4 °F 30.00 in NE 5.0 mph 5.0 mph 54% 0.00 in
16:37 74.1 °F 55.4 °F 30.00 in East 3.0 mph 5.0 mph 52% 0.00 in
16:40 74.1 °F 55.4 °F 30.00 in East 3.0 mph 6.0 mph 52% 0.00 in
16:42 74.2 °F 55.5 °F 30.00 in South 3.0 mph 6.0 mph 52% 0.00 in
16:45 74.3 °F 56.6 °F 30.00 in SE 3.0 mph 5.0 mph 54% 0.00 in
16:50 74.5 °F 55.7 °F 29.99 in ESE 6.0 mph 6.0 mph 52% 0.00 in
16:55 74.8 °F 57.6 °F 29.99 in SE 3.0 mph 4.0 mph 55% 0.00 in
16:56 74.8 °F 57.6 °F 29.99 in SE 5.0 mph 5.0 mph 55% 0.00 in
16:58 74.8 °F 56.0 °F 29.99 in ESE 4.0 mph 7.0 mph 52% 0.00 in
17:01 74.8 °F 56.5 °F 29.99 in SE 4.0 mph 6.0 mph 53% 0.00 in
17:03 74.8 °F 57.1 °F 30.00 in SSE 6.0 mph 8.0 mph 54% 0.00 in
17:08 74.6 °F 56.9 °F 29.99 in East 2.0 mph 9.0 mph 54% 0.00 in
17:13 75.1 °F 58.3 °F 29.99 in SSE 3.0 mph 6.0 mph 56% 0.00 in
17:18 74.8 °F 56.5 °F 29.99 in East 4.0 mph 8.0 mph 53% 0.00 in
17:23 74.3 °F 55.6 °F 30.00 in ESE 5.0 mph 5.0 mph 52% 0.00 in
17:28 74.2 °F 56.0 °F 29.99 in ENE 2.0 mph 5.0 mph 53% 0.00 in
17:29 74.3 °F 56.6 °F 29.99 in ENE 3.0 mph 4.0 mph 54% 0.00 in
17:33 74.3 °F 55.6 °F 29.99 in ENE 1.0 mph 4.0 mph 52% 0.00 in
17:34 74.3 °F 56.6 °F 30.00 in East 4.0 mph 4.0 mph 54% 0.00 in
17:35 74.3 °F 56.1 °F 29.99 in ESE 3.0 mph 6.0 mph 53% 0.00 in
17:39 74.6 °F 56.9 °F 29.99 in East 4.0 mph 6.0 mph 54% 0.00 in
17:40 74.6 °F 56.4 °F 29.99 in East 4.0 mph 7.0 mph 53% 0.00 in
17:45 74.6 °F 56.4 °F 29.99 in ENE 4.0 mph 7.0 mph 53% 0.00 in
17:46 74.5 °F 56.3 °F 29.99 in ESE 3.0 mph 7.0 mph 53% 0.00 in
17:50 74.6 °F 56.9 °F 29.99 in NE 4.0 mph 5.0 mph 54% 0.00 in
17:51 74.6 °F 56.9 °F 29.99 in ENE 2.0 mph 6.0 mph 54% 0.00 in
17:52 74.6 °F 56.9 °F 29.99 in East 4.0 mph 6.0 mph 54% 0.00 in
17:56 74.2 °F 55.5 °F 29.99 in ESE 4.0 mph 7.0 mph 52% 0.00 in
17:57 74.1 °F 55.9 °F 29.99 in ESE 3.0 mph 6.0 mph 53% 0.00 in
18:01 73.9 °F 55.7 °F 29.99 in ESE 4.0 mph 6.0 mph 53% 0.00 in
18:07 73.7 °F 56.5 °F 29.99 in East 3.0 mph 4.0 mph 55% 0.00 in
18:11 73.8 °F 56.1 °F 29.99 in ESE 6.0 mph 7.0 mph 54% 0.00 in
18:16 73.7 °F 56.0 °F 29.99 in ESE 4.0 mph 6.0 mph 54% 0.00 in
18:21 73.7 °F 55.5 °F 29.99 in ESE 5.0 mph 6.0 mph 53% 0.00 in
18:27 73.7 °F 56.0 °F 29.99 in ESE 5.0 mph 6.0 mph 54% 0.00 in
18:32 73.8 °F 56.6 °F 29.99 in SE 3.0 mph 8.0 mph 55% 0.00 in
18:33 73.9 °F 57.2 °F 29.98 in SE 5.0 mph 8.0 mph 56% 0.00 in
18:34 74.0 °F 56.8 °F 29.99 in ESE 6.0 mph 6.0 mph 55% 0.00 in
18:36 74.0 °F 56.3 °F 29.98 in SE 2.0 mph 7.0 mph 54% 0.00 in
18:41 74.0 °F 56.8 °F 29.99 in East 4.0 mph 7.0 mph 55% 0.00 in
18:42 73.9 °F 56.2 °F 29.99 in ESE 4.0 mph 7.0 mph 54% 0.00 in
18:46 74.0 °F 56.8 °F 29.99 in East 4.0 mph 5.0 mph 55% 0.00 in
18:51 74.0 °F 56.8 °F 29.99 in East 2.0 mph 6.0 mph 55% 0.00 in
18:56 74.0 °F 56.8 °F 29.98 in East 4.0 mph 4.0 mph 55% 0.00 in
18:57 74.0 °F 56.8 °F 29.98 in East 3.0 mph 4.0 mph 55% 0.00 in
18:58 74.0 °F 56.8 °F 29.98 in East 3.0 mph 4.0 mph 55% 0.00 in
19:02 74.0 °F 57.3 °F 29.98 in East 3.0 mph 5.0 mph 56% 0.00 in
19:03 74.0 °F 56.8 °F 29.98 in ESE 4.0 mph 5.0 mph 55% 0.00 in
19:08 74.1 °F 57.4 °F 29.98 in SE 2.0 mph 5.0 mph 56% 0.00 in
19:13 74.3 °F 57.1 °F 29.98 in ESE 2.0 mph 5.0 mph 55% 0.00 in
19:18 74.2 °F 57.0 °F 29.99 in East 5.0 mph 5.0 mph 55% 0.00 in
19:23 73.7 °F 56.5 °F 29.99 in East 2.0 mph 5.0 mph 55% 0.00 in
19:28 73.5 °F 57.8 °F 29.99 in ESE 1.0 mph 3.0 mph 58% 0.00 in
19:33 73.2 °F 57.5 °F 29.99 in East 2.0 mph 2.0 mph 58% 0.00 in
19:34 73.2 °F 57.5 °F 29.99 in ESE 2.0 mph 2.0 mph 58% 0.00 in
19:36 73.1 °F 57.5 °F 29.99 in East 2.0 mph 2.0 mph 58% 0.00 in
19:39 73.0 °F 57.4 °F 29.99 in East 2.0 mph 3.0 mph 58% 0.00 in
19:41 72.9 °F 57.8 °F 29.99 in ESE 1.0 mph 2.0 mph 59% 0.00 in
19:45 72.7 °F 57.6 °F 29.99 in East 1.0 mph 1.0 mph 59% 0.00 in
19:50 72.4 °F 57.8 °F 29.99 in NE 1.0 mph 3.0 mph 60% 0.00 in
19:51 72.3 °F 57.7 °F 29.99 in NE 2.0 mph 3.0 mph 60% 0.00 in
19:56 72.0 °F 57.8 °F 29.99 in NE 2.0 mph 2.0 mph 61% 0.00 in
20:00 71.8 °F 57.6 °F 30.00 in NE 2.0 mph 3.0 mph 61% 0.00 in
20:01 71.8 °F 57.6 °F 30.00 in NE 1.0 mph 2.0 mph 61% 0.00 in
20:06 71.5 °F 57.8 °F 30.00 in NE 1.0 mph 2.0 mph 62% 0.00 in
20:11 71.4 °F 58.2 °F 29.99 in NE 1.0 mph 2.0 mph 63% 0.00 in
20:16 71.2 °F 58.0 °F 29.99 in NE 1.0 mph 2.0 mph 63% 0.00 in
20:21 71.0 °F 57.8 °F 29.99 in NE 2.0 mph 3.0 mph 63% 0.00 in
20:26 70.9 °F 57.7 °F 30.00 in NE 1.0 mph 2.0 mph 63% 0.00 in
20:27 70.8 °F 57.6 °F 30.00 in NE 1.0 mph 2.0 mph 63% 0.00 in
20:32 70.6 °F 57.8 °F 29.99 in NE 1.0 mph 2.0 mph 64% 0.00 in
20:33 70.6 °F 57.8 °F 29.99 in NE 1.0 mph 2.0 mph 64% 0.00 in
20:35 70.5 °F 57.8 °F 29.99 in NE 1.0 mph 2.0 mph 64% 0.00 in
20:37 70.4 °F 57.7 °F 29.99 in NE 1.0 mph 2.0 mph 64% 0.00 in
20:42 70.2 °F 57.9 °F 29.99 in NE 2.0 mph 2.0 mph 65% 0.00 in
20:47 69.8 °F 57.9 °F 29.99 in NE 1.0 mph 1.0 mph 66% 0.00 in
20:52 69.6 °F 57.8 °F 29.99 in NE 1.0 mph 2.0 mph 66% 0.00 in
20:54 69.4 °F 57.6 °F 29.99 in NE 2.0 mph 2.0 mph 66% 0.00 in
20:57 69.4 °F 57.6 °F 29.99 in NE 1.0 mph 2.0 mph 66% 0.00 in
20:58 69.4 °F 57.6 °F 29.99 in NE 1.0 mph 2.0 mph 66% 0.00 in
20:59 69.4 °F 57.6 °F 29.99 in NE 2.0 mph 2.0 mph 66% 0.00 in
21:04 69.4 °F 57.6 °F 29.99 in ENE 1.0 mph 2.0 mph 66% 0.00 in
21:09 69.3 °F 57.9 °F 29.99 in SE 1.0 mph 2.0 mph 67% 0.00 in
21:14 68.6 °F 58.4 °F 29.98 in ESE 2.0 mph 2.0 mph 70% 0.00 in
21:19 67.9 °F 58.2 °F 29.98 in Calm   2.0 mph 71% 0.00 in
21:24 67.8 °F 57.7 °F 29.99 in NE 2.0 mph 2.0 mph 70% 0.00 in
21:29 68.1 °F 57.6 °F 29.99 in NE 2.0 mph 2.0 mph 69% 0.00 in
21:34 68.1 °F 57.6 °F 29.99 in ENE 2.0 mph 2.0 mph 69% 0.00 in
21:35 68.2 °F 57.7 °F 29.99 in ENE 2.0 mph 2.0 mph 69% 0.00 in
21:40 68.2 °F 57.7 °F 29.99 in ESE 1.0 mph 3.0 mph 69% 0.00 in
21:45 68.2 °F 57.7 °F 29.99 in Calm   1.0 mph 69% 0.00 in
21:50 67.9 °F 57.4 °F 30.00 in ENE 1.0 mph 2.0 mph 69% 0.00 in
21:51 67.9 °F 57.4 °F 30.00 in ENE 1.0 mph 2.0 mph 69% 0.00 in
21:52 67.9 °F 57.4 °F 30.00 in ESE 2.0 mph 2.0 mph 69% 0.00 in
21:56 67.8 °F 57.3 °F 30.00 in Calm   2.0 mph 69% 0.00 in
21:57 67.7 °F 57.2 °F 30.00 in Calm   2.0 mph 69% 0.00 in
21:59 67.6 °F 57.5 °F 30.00 in ESE 1.0 mph 1.0 mph 70% 0.00 in
22:02 67.3 °F 57.2 °F 30.00 in ESE 1.0 mph 2.0 mph 70% 0.00 in
22:07 67.0 °F 57.3 °F 30.00 in Calm   1.0 mph 71% 0.00 in
22:12 66.7 °F 57.0 °F 30.00 in ENE 1.0 mph 2.0 mph 71% 0.00 in
22:14 66.7 °F 57.0 °F 30.00 in East 2.0 mph 3.0 mph 71% 0.00 in
22:19 66.8 °F 57.1 °F 30.00 in East 1.0 mph 2.0 mph 71% 0.00 in
22:24 66.7 °F 56.6 °F 30.00 in ENE 2.0 mph 3.0 mph 70% 0.00 in
22:29 66.6 °F 56.9 °F 30.00 in Calm   1.0 mph 71% 0.00 in
22:32 66.3 °F 56.6 °F 30.00 in ESE 1.0 mph 1.0 mph 71% 0.00 in
22:34 66.1 °F 56.8 °F 30.00 in Calm   1.0 mph 72% 0.00 in
22:35 66.1 °F 56.8 °F 30.00 in Calm   1.0 mph 72% 0.00 in
22:39 65.8 °F 56.9 °F 30.01 in ESE 1.0 mph 1.0 mph 73% 0.00 in
22:44 65.4 °F 56.9 °F 30.00 in SE 1.0 mph 2.0 mph 74% 0.00 in
22:45 65.4 °F 56.9 °F 30.00 in SE 1.0 mph 2.0 mph 74% 0.00 in
22:50 65.2 °F 57.1 °F 30.00 in ESE 1.0 mph 1.0 mph 75% 0.00 in
22:51 65.2 °F 57.1 °F 30.00 in ESE 2.0 mph 2.0 mph 75% 0.00 in
22:56 65.2 °F 56.7 °F 30.01 in East 1.0 mph 1.0 mph 74% 0.00 in
22:57 65.2 °F 56.7 °F 30.01 in ESE 1.0 mph 2.0 mph 74% 0.00 in
23:02 65.1 °F 56.6 °F 30.00 in ESE 1.0 mph 1.0 mph 74% 0.00 in
23:03 65.1 °F 56.6 °F 30.00 in ESE 1.0 mph 1.0 mph 74% 0.00 in
23:08 65.0 °F 56.5 °F 30.00 in Calm   2.0 mph 74% 0.00 in
23:13 64.9 °F 56.8 °F 30.00 in ESE 1.0 mph 2.0 mph 75% 0.00 in
23:18 64.9 °F 56.8 °F 30.00 in ESE 1.0 mph 3.0 mph 75% 0.00 in
23:23 64.8 °F 56.7 °F 30.00 in Calm   2.0 mph 75% 0.00 in
23:28 64.7 °F 56.6 °F 30.00 in ESE 2.0 mph 2.0 mph 75% 0.00 in
23:29 64.7 °F 56.6 °F 30.00 in ESE 2.0 mph 2.0 mph 75% 0.00 in
23:33 64.9 °F 56.8 °F 30.00 in ESE 1.0 mph 2.0 mph 75% 0.00 in
23:34 64.8 °F 56.7 °F 30.00 in SE 1.0 mph 2.0 mph 75% 0.00 in
23:35 64.8 °F 56.7 °F 30.00 in ESE 2.0 mph 2.0 mph 75% 0.00 in
23:36 64.8 °F 56.7 °F 30.00 in SE 2.0 mph 2.0 mph 75% 0.00 in
23:39 64.6 °F 56.5 °F 30.01 in ESE 2.0 mph 3.0 mph 75% 0.00 in
23:44 64.5 °F 56.8 °F 30.01 in ESE 2.0 mph 2.0 mph 76% 0.00 in
23:46 64.4 °F 56.7 °F 30.01 in ESE 2.0 mph 2.0 mph 76% 0.00 in
23:51 64.3 °F 56.6 °F 30.01 in ESE 2.0 mph 3.0 mph 76% 0.00 in
23:53 64.3 °F 56.6 °F 30.00 in ESE 1.0 mph 3.0 mph 76% 0.00 in
23:56 64.3 °F 56.6 °F 30.00 in ESE 1.0 mph 2.0 mph 76% 0.00 in
23:58 64.3 °F 56.6 °F 30.00 in ESE 2.0 mph 2.0 mph 76% 0.00 in
Compliments of Weather Underground